createdAt,value
2024-01-11T00:00:56.705Z,-1.86
2024-01-11T00:03:39.138Z,-1.84
2024-01-11T00:06:07.533Z,-2.06
2024-01-11T00:08:36.008Z,-2.42
2024-01-11T00:11:05.135Z,-2.42
2024-01-11T00:13:33.898Z,-2.34
2024-01-11T00:18:51.227Z,-2.17
2024-01-11T00:21:19.470Z,-2.18
2024-01-11T00:23:47.696Z,-2.26
2024-01-11T00:26:16.179Z,-2.28
2024-01-11T00:28:44.649Z,-2.30
2024-01-11T00:31:12.869Z,-2.33
2024-01-11T00:33:41.307Z,-2.29
2024-01-11T00:39:10.472Z,-2.22
2024-01-11T00:41:39.567Z,-2.33
2024-01-11T00:44:08.889Z,-2.39
2024-01-11T00:46:37.992Z,-2.42
2024-01-11T00:49:06.186Z,-2.49
2024-01-11T00:51:34.505Z,-2.48
2024-01-11T00:54:02.722Z,-2.40
2024-01-11T00:56:30.986Z,-2.40
2024-01-11T00:58:59.491Z,-2.39
2024-01-11T01:01:27.870Z,-2.43
2024-01-11T01:03:56.048Z,-2.39
2024-01-11T01:06:24.300Z,-2.40
2024-01-11T01:08:52.847Z,-2.40
2024-01-11T01:11:21.077Z,-2.35
2024-01-11T01:13:49.498Z,-2.39
2024-01-11T01:16:19.110Z,-2.43
2024-01-11T01:18:47.438Z,-2.51
2024-01-11T01:21:15.755Z,-2.50
2024-01-11T01:23:43.978Z,-2.49
2024-01-11T01:26:12.176Z,-2.50
2024-01-11T01:28:41.401Z,-2.47
2024-01-11T01:31:09.697Z,-2.47
2024-01-11T01:33:38.021Z,-2.44
2024-01-11T01:36:11.166Z,-2.47
2024-01-11T01:38:39.354Z,-2.46
2024-01-11T01:41:07.932Z,-2.49
2024-01-11T01:43:36.173Z,-2.57
2024-01-11T01:46:05.023Z,-2.59
2024-01-11T01:48:33.260Z,-2.56
2024-01-11T01:51:01.514Z,-2.59
2024-01-11T01:53:29.989Z,-2.54
2024-01-11T01:55:58.284Z,-2.45
2024-01-11T01:58:26.531Z,-2.50
2024-01-11T02:00:54.852Z,-2.52
2024-01-11T02:03:24.033Z,-2.50
2024-01-11T02:05:53.310Z,-2.49
2024-01-11T02:08:22.876Z,-2.60
2024-01-11T02:10:51.078Z,-2.59
2024-01-11T02:13:19.261Z,-2.65
2024-01-11T02:15:47.576Z,-2.77
2024-01-11T02:18:16.016Z,-2.77
2024-01-11T02:20:44.632Z,-2.76
2024-01-11T02:23:21.025Z,-2.74
2024-01-11T02:25:49.241Z,-2.67
2024-01-11T02:28:17.349Z,-2.52
2024-01-11T02:30:45.702Z,-2.45
2024-01-11T02:33:17.669Z,-2.36
2024-01-11T02:35:48.044Z,-2.39
2024-01-11T02:38:16.940Z,-2.60
2024-01-11T02:40:45.961Z,-2.64
2024-01-11T02:43:14.841Z,-2.65
2024-01-11T02:45:43.113Z,-2.57
2024-01-11T02:48:11.514Z,-2.49
2024-01-11T02:50:39.946Z,-2.27
2024-01-11T02:53:08.486Z,-2.01
2024-01-11T02:55:36.642Z,-1.93
2024-01-11T02:58:04.744Z,-2.00
2024-01-11T03:00:32.982Z,-2.21
2024-01-11T03:03:01.318Z,-2.05
2024-01-11T03:05:29.657Z,-1.93
2024-01-11T03:07:58.041Z,-2.00
2024-01-11T03:10:26.480Z,-1.84
2024-01-11T03:12:54.703Z,-1.85
2024-01-11T03:15:23.034Z,-1.97
2024-01-11T03:17:51.363Z,-1.92
2024-01-11T03:20:23.105Z,-1.86
2024-01-11T03:22:53.826Z,-1.72
2024-01-11T03:25:22.170Z,-1.68
2024-01-11T03:27:50.569Z,-1.78
2024-01-11T03:30:18.834Z,-1.63
2024-01-11T03:32:47.494Z,-1.69
2024-01-11T03:35:15.956Z,-1.91
2024-01-11T03:37:44.159Z,-1.98
2024-01-11T03:40:12.542Z,-1.78
2024-01-11T03:42:40.756Z,-1.60
2024-01-11T03:45:09.748Z,-1.75
2024-01-11T03:47:37.999Z,-1.77
2024-01-11T03:50:07.048Z,-1.68
2024-01-11T03:52:35.182Z,-1.74
2024-01-11T03:55:03.416Z,-1.59
2024-01-11T03:57:31.704Z,-1.72
2024-01-11T04:00:03.150Z,-1.65
2024-01-11T04:02:32.986Z,-1.51
2024-01-11T04:05:01.295Z,-1.32
2024-01-11T04:07:29.713Z,-1.22
2024-01-11T04:09:57.817Z,-1.00
2024-01-11T04:12:26.153Z,-0.85
2024-01-11T04:14:54.432Z,-0.89
2024-01-11T04:17:23.427Z,-1.03
2024-01-11T04:19:51.609Z,-0.73
2024-01-11T04:22:19.867Z,-0.67
2024-01-11T04:24:48.081Z,-0.75
2024-01-11T04:27:16.134Z,-0.85
2024-01-11T04:29:44.423Z,-0.71
2024-01-11T04:32:12.851Z,-0.81
2024-01-11T04:34:41.168Z,-0.85
2024-01-11T04:37:09.373Z,-0.82
2024-01-11T04:39:37.607Z,-0.78
2024-01-11T04:42:06.016Z,-1.16
2024-01-11T04:44:34.582Z,-1.19
2024-01-11T04:47:02.947Z,-1.20
2024-01-11T04:49:31.493Z,-1.17
2024-01-11T04:51:59.782Z,-1.26
2024-01-11T04:54:27.992Z,-1.47
2024-01-11T04:56:56.231Z,-1.30
2024-01-11T04:59:24.563Z,-1.25
2024-01-11T05:01:52.817Z,-1.32
2024-01-11T05:04:20.897Z,-1.30
2024-01-11T05:06:49.325Z,-1.18
2024-01-11T05:09:17.553Z,-1.15
2024-01-11T05:11:45.824Z,-1.14
2024-01-11T05:14:14.172Z,-1.16
2024-01-11T05:16:42.939Z,-1.03
2024-01-11T05:19:11.214Z,-0.99
2024-01-11T05:21:39.490Z,-0.93
2024-01-11T05:24:10.962Z,-0.82
2024-01-11T05:26:40.187Z,-0.95
2024-01-11T05:29:08.648Z,-0.77
2024-01-11T05:31:37.078Z,-0.52
2024-01-11T05:34:05.392Z,-0.60
2024-01-11T05:36:34.055Z,-1.03
2024-01-11T05:39:02.195Z,-0.93
2024-01-11T05:41:30.436Z,-0.81
2024-01-11T05:43:58.698Z,-0.91
2024-01-11T05:46:26.793Z,-0.58
2024-01-11T05:48:55.030Z,-0.85
2024-01-11T05:51:23.306Z,-0.99
2024-01-11T05:53:51.574Z,-0.76
2024-01-11T05:56:20.481Z,-0.81
2024-01-11T05:58:48.763Z,-0.73
2024-01-11T06:01:17.040Z,-0.79
2024-01-11T06:03:45.233Z,-0.87
2024-01-11T06:06:13.876Z,-0.89
2024-01-11T06:08:44.271Z,-0.90
2024-01-11T06:11:12.880Z,-1.17
2024-01-11T06:13:44.265Z,-1.33
2024-01-11T06:16:13.472Z,-1.17
2024-01-11T06:18:42.146Z,-1.03
2024-01-11T06:21:10.494Z,-1.07
2024-01-11T06:23:38.807Z,-0.89
2024-01-11T06:26:07.150Z,-1.18
2024-01-11T06:28:36.418Z,-1.26
2024-01-11T06:31:05.090Z,-1.41
2024-01-11T06:33:34.519Z,-1.12
2024-01-11T06:36:02.954Z,-1.06
2024-01-11T06:38:31.300Z,-0.98
2024-01-11T06:40:59.991Z,-1.00
2024-01-11T06:43:28.280Z,-1.10
2024-01-11T06:45:56.630Z,-1.05
2024-01-11T06:48:24.878Z,-1.00
2024-01-11T06:50:53.206Z,-1.00
2024-01-11T06:53:21.827Z,-0.78
2024-01-11T06:55:50.119Z,-0.70
2024-01-11T06:58:18.349Z,-0.62
2024-01-11T07:00:46.611Z,-0.78
2024-01-11T07:03:14.860Z,-0.69
2024-01-11T07:05:43.286Z,-0.52
2024-01-11T07:08:11.774Z,-0.56
2024-01-11T07:10:40.019Z,-0.58
2024-01-11T07:13:08.375Z,-0.60
2024-01-11T07:15:36.637Z,-0.53
2024-01-11T07:18:05.563Z,-0.56
2024-01-11T07:20:34.085Z,-0.45
2024-01-11T07:23:02.572Z,-0.43
2024-01-11T07:25:31.786Z,-0.33
2024-01-11T07:28:00.463Z,-0.04
2024-01-11T07:30:28.795Z,-0.06
2024-01-11T07:32:57.106Z,-0.10
2024-01-11T07:35:25.545Z,0.10
2024-01-11T07:37:53.875Z,0.11
2024-01-11T07:40:22.405Z,-0.06
2024-01-11T07:42:51.302Z,-0.21
2024-01-11T07:45:20.382Z,-0.07
2024-01-11T07:47:48.755Z,0.16
2024-01-11T07:50:17.062Z,0.35
2024-01-11T07:52:45.365Z,0.34
2024-01-11T07:55:14.271Z,0.31
2024-01-11T07:57:42.911Z,0.40
2024-01-11T08:00:11.738Z,0.28
2024-01-11T08:02:42.974Z,0.38
2024-01-11T08:05:11.336Z,0.42
2024-01-11T08:07:39.839Z,0.60
2024-01-11T08:10:10.418Z,0.59
2024-01-11T08:12:39.320Z,0.66
2024-01-11T08:15:07.716Z,0.69
2024-01-11T08:17:37.292Z,0.87
2024-01-11T08:20:10.374Z,0.84
2024-01-11T08:22:48.362Z,0.73
2024-01-11T08:25:16.647Z,0.83
2024-01-11T08:27:44.814Z,0.85
2024-01-11T08:30:14.225Z,0.86
2024-01-11T08:32:43.662Z,0.63
2024-01-11T08:35:13.517Z,0.54
2024-01-11T08:37:41.998Z,0.75
2024-01-11T08:40:11.045Z,0.43
2024-01-11T08:42:40.722Z,0.45
2024-01-11T08:45:09.411Z,0.63
2024-01-11T08:47:40.044Z,0.64
2024-01-11T08:50:09.180Z,0.68
2024-01-11T08:52:37.651Z,0.68
2024-01-11T08:55:06.988Z,0.33
2024-01-11T08:57:37.172Z,0.18
2024-01-11T09:00:07.608Z,0.43
2024-01-11T09:02:36.911Z,0.63
2024-01-11T09:05:09.351Z,0.65
2024-01-11T09:07:38.970Z,0.72
2024-01-11T09:10:12.696Z,0.61
2024-01-11T09:12:40.996Z,0.54
2024-01-11T09:15:09.566Z,0.41
2024-01-11T09:17:39.153Z,0.32
2024-01-11T09:20:08.382Z,0.62
2024-01-11T09:22:36.713Z,0.59
2024-01-11T09:25:05.651Z,0.50
2024-01-11T09:27:33.884Z,0.69
2024-01-11T09:30:02.317Z,0.45
2024-01-11T09:32:32.482Z,0.39
2024-01-11T09:35:01.017Z,0.57
2024-01-11T09:37:29.559Z,0.56
2024-01-11T09:39:57.754Z,0.55
2024-01-11T09:42:26.095Z,0.70
2024-01-11T09:44:56.820Z,0.88
2024-01-11T09:47:25.061Z,0.94
2024-01-11T09:49:55.214Z,1.12
2024-01-11T09:52:24.314Z,1.19
2024-01-11T09:54:52.587Z,1.28
2024-01-11T09:57:26.800Z,1.47
2024-01-11T09:59:57.154Z,1.66
2024-01-11T10:02:28.256Z,1.69
2024-01-11T10:04:57.150Z,1.52
2024-01-11T10:07:29.050Z,1.53
2024-01-11T10:09:59.535Z,1.41
2024-01-11T10:12:31.003Z,1.61
2024-01-11T10:15:07.765Z,1.59
2024-01-11T10:17:36.139Z,1.67
2024-01-11T10:20:06.200Z,1.59
2024-01-11T10:22:34.435Z,1.46
2024-01-11T10:25:13.595Z,1.29
2024-01-11T10:27:45.899Z,1.27
2024-01-11T10:30:18.222Z,1.31
2024-01-11T10:32:48.304Z,1.16
2024-01-11T10:35:18.885Z,1.11
2024-01-11T10:37:47.167Z,1.09
2024-01-11T10:40:16.066Z,1.12
2024-01-11T10:42:51.359Z,1.06
2024-01-11T10:45:21.129Z,1.19
2024-01-11T10:48:00.794Z,1.24
2024-01-11T10:50:46.972Z,1.20
2024-01-11T10:53:44.634Z,1.21
2024-01-11T10:56:13.866Z,0.92
2024-01-11T10:58:42.973Z,0.94
2024-01-11T11:01:14.636Z,0.98
2024-01-11T11:03:44.490Z,0.95
2024-01-11T11:06:13.790Z,0.70
2024-01-11T11:08:42.519Z,0.85
2024-01-11T11:11:11.020Z,0.98
2024-01-11T11:13:39.266Z,0.95
2024-01-11T11:16:08.803Z,0.73
2024-01-11T11:18:39.543Z,0.88
2024-01-11T11:21:14.255Z,0.87
2024-01-11T11:23:42.919Z,0.76
2024-01-11T11:26:17.726Z,0.84
2024-01-11T11:28:49.473Z,0.89
2024-01-11T11:31:36.412Z,1.07
2024-01-11T11:34:08.137Z,1.00
2024-01-11T11:36:36.749Z,0.94
2024-01-11T11:39:05.638Z,0.99
2024-01-11T11:41:34.079Z,1.02
2024-01-11T11:44:06.822Z,0.78
2024-01-11T11:46:35.131Z,0.55
2024-01-11T11:49:03.485Z,0.55
2024-01-11T11:51:32.381Z,0.52
2024-01-11T11:54:00.721Z,0.48
2024-01-11T11:56:29.126Z,0.51
2024-01-11T11:58:57.466Z,0.74
2024-01-11T12:01:25.913Z,0.91
2024-01-11T12:03:54.529Z,0.78
2024-01-11T12:06:26.392Z,0.98
2024-01-11T12:08:57.554Z,1.09
2024-01-11T12:11:27.810Z,1.32
2024-01-11T12:13:58.990Z,1.51
2024-01-11T12:16:29.113Z,1.47
2024-01-11T12:18:58.027Z,1.29
2024-01-11T12:21:27.603Z,1.44
2024-01-11T12:23:56.301Z,1.50
2024-01-11T12:26:25.166Z,1.46
2024-01-11T12:28:53.787Z,1.39
2024-01-11T12:31:23.015Z,1.16
2024-01-11T12:33:51.661Z,1.15
2024-01-11T12:36:20.441Z,1.22
2024-01-11T12:38:53.303Z,1.20
2024-01-11T12:41:23.492Z,1.10
2024-01-11T12:43:51.824Z,1.19
2024-01-11T12:46:20.959Z,1.38
2024-01-11T12:48:53.406Z,1.41
2024-01-11T12:51:23.032Z,1.43
2024-01-11T12:53:54.976Z,1.53
2024-01-11T12:56:24.467Z,1.43
2024-01-11T12:58:52.987Z,1.30
2024-01-11T13:01:21.414Z,1.22
2024-01-11T13:03:50.254Z,1.41
2024-01-11T13:06:20.700Z,1.39
2024-01-11T13:08:49.300Z,1.51
2024-01-11T13:11:18.894Z,1.47
2024-01-11T13:13:49.054Z,1.61
2024-01-11T13:16:20.790Z,1.77
2024-01-11T13:18:49.152Z,1.64
2024-01-11T13:21:17.989Z,1.10
2024-01-11T13:23:46.701Z,1.03
2024-01-11T13:26:15.174Z,1.02
2024-01-11T13:28:43.583Z,0.72
2024-01-11T13:31:12.031Z,0.72
2024-01-11T13:33:40.788Z,0.88
2024-01-11T13:36:09.556Z,0.89
2024-01-11T13:38:38.037Z,0.67
2024-01-11T13:41:09.736Z,0.44
2024-01-11T13:43:38.411Z,0.45
2024-01-11T13:46:06.974Z,0.47
2024-01-11T13:48:35.800Z,0.46
2024-01-11T13:51:05.513Z,0.64
2024-01-11T13:53:34.009Z,0.72
2024-01-11T13:56:02.454Z,0.65
2024-01-11T13:58:31.407Z,0.69
2024-01-11T14:00:59.832Z,0.71
2024-01-11T14:03:28.284Z,0.48
2024-01-11T14:05:57.168Z,0.43
2024-01-11T14:08:27.382Z,0.57
2024-01-11T14:10:56.118Z,0.57
2024-01-11T14:13:24.825Z,0.37
2024-01-11T14:15:53.161Z,0.50
2024-01-11T14:18:23.944Z,0.50
2024-01-11T14:20:52.288Z,0.45
2024-01-11T14:23:21.126Z,0.54
2024-01-11T14:25:52.738Z,0.49
2024-01-11T14:28:24.807Z,0.58
2024-01-11T14:30:53.258Z,0.49
2024-01-11T14:33:21.498Z,0.61
2024-01-11T14:35:50.073Z,0.46
2024-01-11T14:38:18.339Z,0.23
2024-01-11T14:40:47.029Z,0.39
2024-01-11T14:43:16.042Z,0.47
2024-01-11T14:48:38.284Z,0.32
2024-01-11T14:51:06.805Z,0.28
2024-01-11T14:53:35.046Z,0.19
2024-01-11T14:56:04.199Z,0.25
2024-01-11T14:58:32.947Z,0.29
2024-01-11T15:01:01.200Z,0.29
2024-01-11T15:03:29.393Z,0.36
2024-01-11T15:05:58.116Z,0.39
2024-01-11T15:08:26.547Z,0.32
2024-01-11T15:10:54.799Z,0.29
2024-01-11T15:13:23.175Z,0.41
2024-01-11T15:15:51.299Z,0.59
2024-01-11T15:18:20.100Z,0.61
2024-01-11T15:20:48.527Z,0.74
2024-01-11T15:23:17.467Z,0.75
2024-01-11T15:25:45.877Z,0.83
2024-01-11T15:28:14.117Z,0.50
2024-01-11T15:30:42.458Z,0.62
2024-01-11T15:33:11.200Z,0.71
2024-01-11T15:35:39.647Z,0.67
2024-01-11T15:38:08.311Z,0.74
2024-01-11T15:40:36.756Z,0.86
2024-01-11T15:43:08.109Z,0.95
2024-01-11T15:45:37.643Z,1.05
2024-01-11T15:48:06.810Z,1.09
2024-01-11T15:50:35.332Z,1.12
2024-01-11T15:53:03.823Z,1.02
2024-01-11T15:55:31.995Z,1.13
2024-01-11T15:58:03.048Z,1.28
2024-01-11T16:00:32.390Z,1.39
2024-01-11T16:03:00.824Z,1.40
2024-01-11T16:05:29.365Z,1.30
2024-01-11T16:07:57.941Z,1.05
2024-01-11T16:10:26.134Z,0.90
2024-01-11T16:12:54.476Z,0.84
2024-01-11T16:15:22.657Z,0.83
2024-01-11T16:17:52.400Z,1.06
2024-01-11T16:20:20.883Z,1.25
2024-01-11T16:22:49.417Z,1.22
2024-01-11T16:25:17.745Z,1.20
2024-01-11T16:27:45.967Z,1.33
2024-01-11T16:30:15.001Z,1.49
2024-01-11T16:32:43.304Z,1.58
2024-01-11T16:35:11.823Z,1.51
2024-01-11T16:37:39.925Z,1.50
2024-01-11T16:40:11.221Z,1.64
2024-01-11T16:42:39.899Z,1.75
2024-01-11T16:45:08.964Z,1.78
2024-01-11T16:47:39.362Z,1.70
2024-01-11T16:50:09.510Z,1.52
2024-01-11T16:52:39.044Z,1.57
2024-01-11T16:55:07.606Z,1.75
2024-01-11T16:57:36.165Z,1.76
2024-01-11T17:00:05.260Z,1.73
2024-01-11T17:02:33.551Z,1.58
2024-01-11T17:05:01.822Z,1.81
2024-01-11T17:07:30.080Z,1.78
2024-01-11T17:09:58.321Z,2.30
2024-01-11T17:12:26.388Z,2.60
2024-01-11T17:14:57.394Z,2.88
2024-01-11T17:17:26.114Z,3.00
2024-01-11T17:19:54.492Z,3.09
2024-01-11T17:22:23.225Z,3.07
2024-01-11T17:24:51.389Z,3.29
2024-01-11T17:27:19.487Z,3.27
2024-01-11T17:29:47.991Z,3.37
2024-01-11T17:32:16.249Z,3.48
2024-01-11T17:34:46.042Z,3.11
2024-01-11T17:37:14.359Z,2.97
2024-01-11T17:39:42.531Z,2.86
2024-01-11T17:42:10.704Z,2.53
2024-01-11T17:44:40.675Z,2.10
2024-01-11T17:47:08.946Z,2.40
2024-01-11T17:49:40.312Z,2.44
2024-01-11T17:52:09.988Z,2.34
2024-01-11T17:54:40.693Z,1.91
2024-01-11T17:57:09.021Z,2.15
2024-01-11T17:59:37.262Z,2.38
2024-01-11T18:02:05.549Z,2.23
2024-01-11T18:04:33.767Z,2.12
2024-01-11T18:07:02.334Z,2.11
2024-01-11T18:09:30.786Z,1.99
2024-01-11T18:11:59.082Z,2.02
2024-01-11T18:14:27.539Z,1.90
2024-01-11T18:16:55.872Z,1.65
2024-01-11T18:19:24.091Z,1.79
2024-01-11T18:21:52.365Z,1.98
2024-01-11T18:24:20.697Z,2.14
2024-01-11T18:26:49.053Z,2.22
2024-01-11T18:29:17.319Z,2.29
2024-01-11T18:31:46.387Z,2.41
2024-01-11T18:34:14.649Z,2.42
2024-01-11T18:36:49.136Z,2.47
2024-01-11T18:39:17.369Z,2.63
2024-01-11T18:41:45.628Z,2.80
2024-01-11T18:44:14.224Z,2.77
2024-01-11T18:46:42.871Z,2.77
2024-01-11T18:49:11.379Z,2.73
2024-01-11T18:51:41.599Z,2.79
2024-01-11T18:54:10.391Z,2.77
2024-01-11T18:56:39.290Z,2.69
2024-01-11T18:59:07.796Z,2.52
2024-01-11T19:01:36.207Z,2.38
2024-01-11T19:04:04.918Z,2.37
2024-01-11T19:06:33.468Z,2.49
2024-01-11T19:09:02.774Z,2.50
2024-01-11T19:11:31.003Z,2.64
2024-01-11T19:13:59.613Z,2.69
2024-01-11T19:16:27.887Z,2.77
2024-01-11T19:18:56.256Z,2.61
2024-01-11T19:21:25.262Z,2.64
2024-01-11T19:23:53.798Z,2.68
2024-01-11T19:26:22.341Z,2.76
2024-01-11T19:28:50.806Z,2.90
2024-01-11T19:31:19.043Z,2.90
2024-01-11T19:33:48.521Z,2.80
2024-01-11T19:36:16.952Z,2.70
2024-01-11T19:38:45.247Z,2.70
2024-01-11T19:41:13.825Z,2.72
2024-01-11T19:43:47.166Z,2.74
2024-01-11T19:46:22.140Z,2.83
2024-01-11T19:48:51.185Z,2.78
2024-01-11T19:51:19.815Z,3.00
2024-01-11T19:53:48.383Z,3.08
2024-01-11T19:56:21.651Z,3.14
2024-01-11T19:58:52.338Z,3.12
2024-01-11T20:01:20.672Z,3.11
2024-01-11T20:03:49.093Z,3.14
2024-01-11T20:06:17.534Z,3.11
2024-01-11T20:08:45.919Z,3.18
2024-01-11T20:11:14.481Z,3.26
2024-01-11T20:13:42.793Z,3.25
2024-01-11T20:16:11.175Z,3.29
2024-01-11T20:18:39.715Z,3.42
2024-01-11T20:21:12.599Z,3.47
2024-01-11T20:23:44.951Z,3.37
2024-01-11T20:26:14.975Z,3.25
2024-01-11T20:28:43.420Z,3.16
2024-01-11T20:31:11.791Z,3.09
2024-01-11T20:33:40.475Z,3.16
2024-01-11T20:36:10.171Z,3.30
2024-01-11T20:38:38.543Z,3.22
2024-01-11T20:41:06.915Z,3.23
2024-01-11T20:43:35.463Z,3.11
2024-01-11T20:46:04.434Z,3.15
2024-01-11T20:48:32.878Z,3.30
2024-01-11T20:51:01.569Z,3.13
2024-01-11T20:53:33.159Z,3.25
2024-01-11T20:56:01.493Z,3.38
2024-01-11T20:58:29.607Z,3.41
2024-01-11T21:00:57.975Z,3.46
2024-01-11T21:03:26.274Z,3.63
2024-01-11T21:05:56.651Z,3.69
2024-01-11T21:08:26.322Z,3.57
2024-01-11T21:10:54.628Z,3.53
2024-01-11T21:13:24.848Z,3.59
2024-01-11T21:15:53.046Z,3.64
2024-01-11T21:18:21.778Z,3.69
2024-01-11T21:20:50.927Z,3.79
2024-01-11T21:23:19.299Z,3.84
2024-01-11T21:25:48.009Z,3.93
2024-01-11T21:28:16.452Z,3.96
2024-01-11T21:30:44.882Z,4.00
2024-01-11T21:33:14.656Z,3.85
2024-01-11T21:35:44.187Z,3.92
2024-01-11T21:38:12.658Z,3.98
2024-01-11T21:40:42.865Z,4.03
2024-01-11T21:43:11.211Z,4.00
2024-01-11T21:45:40.138Z,3.89
2024-01-11T21:48:08.473Z,3.63
2024-01-11T21:50:36.902Z,3.72
2024-01-11T21:53:05.355Z,3.58
2024-01-11T21:55:34.120Z,3.50
2024-01-11T21:58:02.433Z,3.51
2024-01-11T22:00:33.024Z,3.61
2024-01-11T22:03:01.680Z,3.83
2024-01-11T22:05:30.559Z,3.90
2024-01-11T22:07:58.776Z,3.91
2024-01-11T22:10:28.501Z,3.95
2024-01-11T22:12:56.970Z,3.94
2024-01-11T22:15:25.127Z,4.13
2024-01-11T22:17:53.415Z,4.16
2024-01-11T22:20:22.112Z,4.17
2024-01-11T22:22:50.575Z,3.99
2024-01-11T22:25:18.740Z,4.05
2024-01-11T22:27:47.147Z,4.07
2024-01-11T22:30:15.984Z,4.14
2024-01-11T22:32:44.791Z,4.19
2024-01-11T22:35:13.011Z,4.21
2024-01-11T22:37:42.465Z,4.07
2024-01-11T22:40:12.282Z,4.09
2024-01-11T22:42:40.458Z,4.18
2024-01-11T22:45:09.680Z,4.15
2024-01-11T22:47:38.317Z,4.14
2024-01-11T22:50:07.491Z,3.99
2024-01-11T22:52:35.728Z,3.93
2024-01-11T22:55:05.420Z,3.87
2024-01-11T22:57:34.888Z,4.05
2024-01-11T23:00:05.399Z,4.05
2024-01-11T23:02:33.626Z,3.97
2024-01-11T23:05:01.985Z,3.75
2024-01-11T23:07:30.226Z,3.62
2024-01-11T23:09:58.325Z,3.64
2024-01-11T23:12:26.521Z,3.48
2024-01-11T23:14:54.901Z,3.31
2024-01-11T23:17:23.307Z,3.31
2024-01-11T23:19:53.009Z,3.42
2024-01-11T23:22:21.264Z,3.46
2024-01-11T23:24:49.438Z,3.57
2024-01-11T23:27:18.125Z,3.66
2024-01-11T23:29:46.273Z,3.72
2024-01-11T23:32:14.896Z,3.53
2024-01-11T23:34:43.173Z,3.64
2024-01-11T23:37:11.434Z,3.69
2024-01-11T23:39:39.656Z,3.75
2024-01-11T23:42:09.000Z,3.64
2024-01-11T23:44:37.189Z,3.51
2024-01-11T23:47:06.214Z,3.15
2024-01-11T23:49:34.438Z,3.26
2024-01-11T23:52:02.634Z,3.39
2024-01-11T23:54:30.854Z,3.36
2024-01-11T23:56:59.046Z,3.38
2024-01-11T23:59:27.360Z,3.36
